Terminal Aerodrome Forecast
Issued by NWS

Home | Current Version | Previous Version | Text Only | Print | Product List | Glossary On
Versions: 1 2 3 4 5 6 7 8 9 10 11 12 13 14 15 16 17 18 19 20 21 22 23 24
208
FTUS46 KMTR 190928 AAA
TAFSFO
TAF AMD
KSFO 190928Z 1909/2012 15005KT P6SM VCSH SCT023 BKN040
     FM191600 23010KT P6SM -SHRA OVC040
     FM192200 25012KT P6SM BKN040 OVC080
     FM200300 18007KT P6SM BKN050 OVC100 PROB30 2006/2010 P6SM -RA
      OVC025
     FM201000 15020KT P6SM -RA OVC025=

USA.gov is the U.S. government's official web portal to all federal, state and local government web resources and services.